sensor_id;sensor_type;location;lat;lon;timestamp;temperature;humidity
11991;DHT22;6055;52.522;13.446;2023-05-08T00:01:43;10.40;99.90
11991;DHT22;6055;52.522;13.446;2023-05-08T00:04:09;10.40;99.90
11991;DHT22;6055;52.522;13.446;2023-05-08T00:06:34;10.30;99.90
11991;DHT22;6055;52.522;13.446;2023-05-08T00:09:00;10.30;99.90
11991;DHT22;6055;52.522;13.446;2023-05-08T00:11:25;10.30;99.90
11991;DHT22;6055;52.522;13.446;2023-05-08T00:13:50;10.20;99.90
11991;DHT22;6055;52.522;13.446;2023-05-08T00:16:16;10.20;99.90
11991;DHT22;6055;52.522;13.446;2023-05-08T00:18:42;10.20;99.90
11991;DHT22;6055;52.522;13.446;2023-05-08T00:21:07;10.20;99.90
11991;DHT22;6055;52.522;13.446;2023-05-08T00:23:33;10.10;99.90
11991;DHT22;6055;52.522;13.446;2023-05-08T00:25:59;10.10;99.90
11991;DHT22;6055;52.522;13.446;2023-05-08T00:28:24;10.00;99.90
11991;DHT22;6055;52.522;13.446;2023-05-08T00:30:50;10.00;99.90
11991;DHT22;6055;52.522;13.446;2023-05-08T00:33:15;9.90;99.90
11991;DHT22;6055;52.522;13.446;2023-05-08T00:35:41;9.90;99.90
11991;DHT22;6055;52.522;13.446;2023-05-08T00:38:09;9.90;99.90
11991;DHT22;6055;52.522;13.446;2023-05-08T00:40:35;9.80;99.90
11991;DHT22;6055;52.522;13.446;2023-05-08T00:43:01;9.80;99.90
11991;DHT22;6055;52.522;13.446;2023-05-08T00:45:32;9.80;99.90
11991;DHT22;6055;52.522;13.446;2023-05-08T00:47:58;9.90;99.90
11991;DHT22;6055;52.522;13.446;2023-05-08T00:50:24;9.80;99.90
11991;DHT22;6055;52.522;13.446;2023-05-08T00:52:50;9.70;99.90
11991;DHT22;6055;52.522;13.446;2023-05-08T00:55:15;9.70;99.90
11991;DHT22;6055;52.522;13.446;2023-05-08T00:57:41;9.80;99.90
11991;DHT22;6055;52.522;13.446;2023-05-08T01:00:08;9.70;99.90
11991;DHT22;6055;52.522;13.446;2023-05-08T01:02:34;9.70;99.90
11991;DHT22;6055;52.522;13.446;2023-05-08T01:05:00;9.60;99.90
11991;DHT22;6055;52.522;13.446;2023-05-08T01:07:26;9.60;99.90
11991;DHT22;6055;52.522;13.446;2023-05-08T01:09:52;9.50;99.90
11991;DHT22;6055;52.522;13.446;2023-05-08T01:12:47;9.50;99.90
11991;DHT22;6055;52.522;13.446;2023-05-08T01:15:20;9.40;99.90
11991;DHT22;6055;52.522;13.446;2023-05-08T01:18:07;9.40;99.90
11991;DHT22;6055;52.522;13.446;2023-05-08T01:20:55;9.40;99.90
11991;DHT22;6055;52.522;13.446;2023-05-08T01:26:20;9.30;99.90
11991;DHT22;6055;52.522;13.446;2023-05-08T01:29:42;9.30;99.90
11991;DHT22;6055;52.522;13.446;2023-05-08T01:32:21;9.30;99.90
11991;DHT22;6055;52.522;13.446;2023-05-08T01:35:16;9.30;99.90
11991;DHT22;6055;52.522;13.446;2023-05-08T01:37:49;9.30;99.90
11991;DHT22;6055;52.522;13.446;2023-05-08T01:40:36;9.30;99.90
11991;DHT22;6055;52.522;13.446;2023-05-08T01:46:04;9.30;99.90
11991;DHT22;6055;52.522;13.446;2023-05-08T01:48:33;9.20;99.90
11991;DHT22;6055;52.522;13.446;2023-05-08T01:51:11;9.20;99.90
11991;DHT22;6055;52.522;13.446;2023-05-08T01:53:42;9.20;99.90
11991;DHT22;6055;52.522;13.446;2023-05-08T01:56:12;9.10;99.90
11991;DHT22;6055;52.522;13.446;2023-05-08T01:58:41;9.20;99.90
11991;DHT22;6055;52.522;13.446;2023-05-08T02:01:09;9.20;99.90
11991;DHT22;6055;52.522;13.446;2023-05-08T02:03:36;9.10;99.90
11991;DHT22;6055;52.522;13.446;2023-05-08T02:06:04;9.10;99.90
11991;DHT22;6055;52.522;13.446;2023-05-08T02:08:31;9.10;99.90
11991;DHT22;6055;52.522;13.446;2023-05-08T02:10:58;9.10;99.90
11991;DHT22;6055;52.522;13.446;2023-05-08T02:13:26;9.10;99.90
11991;DHT22;6055;52.522;13.446;2023-05-08T02:15:55;9.10;99.90
11991;DHT22;6055;52.522;13.446;2023-05-08T02:18:23;9.00;99.90
11991;DHT22;6055;52.522;13.446;2023-05-08T02:20:50;9.00;99.90
11991;DHT22;6055;52.522;13.446;2023-05-08T02:23:17;9.00;99.90
11991;DHT22;6055;52.522;13.446;2023-05-08T02:25:45;9.00;99.90
11991;DHT22;6055;52.522;13.446;2023-05-08T02:28:11;8.90;99.90
11991;DHT22;6055;52.522;13.446;2023-05-08T02:30:38;8.90;99.90
11991;DHT22;6055;52.522;13.446;2023-05-08T02:33:07;8.90;99.90
11991;DHT22;6055;52.522;13.446;2023-05-08T02:35:33;8.80;99.90
11991;DHT22;6055;52.522;13.446;2023-05-08T02:38:00;8.80;99.90
11991;DHT22;6055;52.522;13.446;2023-05-08T02:40:27;8.80;99.90
11991;DHT22;6055;52.522;13.446;2023-05-08T02:42:54;8.80;99.90
11991;DHT22;6055;52.522;13.446;2023-05-08T02:45:24;8.80;99.90
11991;DHT22;6055;52.522;13.446;2023-05-08T02:48:06;8.80;99.90
11991;DHT22;6055;52.522;13.446;2023-05-08T02:50:54;8.80;99.90
11991;DHT22;6055;52.522;13.446;2023-05-08T02:53:30;8.70;99.90
11991;DHT22;6055;52.522;13.446;2023-05-08T02:56:04;8.70;99.90
11991;DHT22;6055;52.522;13.446;2023-05-08T02:58:41;8.60;99.90
11991;DHT22;6055;52.522;13.446;2023-05-08T03:01:24;8.60;99.90
11991;DHT22;6055;52.522;13.446;2023-05-08T03:04:03;8.50;99.90
11991;DHT22;6055;52.522;13.446;2023-05-08T03:06:34;8.60;99.90
11991;DHT22;6055;52.522;13.446;2023-05-08T03:09:01;8.60;99.90
11991;DHT22;6055;52.522;13.446;2023-05-08T03:11:37;8.60;99.90
11991;DHT22;6055;52.522;13.446;2023-05-08T03:14:05;8.50;99.90
11991;DHT22;6055;52.522;13.446;2023-05-08T03:16:34;8.50;99.90
11991;DHT22;6055;52.522;13.446;2023-05-08T03:19:05;8.50;99.90
11991;DHT22;6055;52.522;13.446;2023-05-08T03:21:32;8.50;99.90
11991;DHT22;6055;52.522;13.446;2023-05-08T03:23:59;8.50;99.90
11991;DHT22;6055;52.522;13.446;2023-05-08T03:26:26;8.50;99.90
11991;DHT22;6055;52.522;13.446;2023-05-08T03:28:52;8.40;99.90
11991;DHT22;6055;52.522;13.446;2023-05-08T03:31:19;8.50;99.90
11991;DHT22;6055;52.522;13.446;2023-05-08T03:33:46;8.50;99.90
11991;DHT22;6055;52.522;13.446;2023-05-08T03:36:13;8.50;99.90
11991;DHT22;6055;52.522;13.446;2023-05-08T03:38:39;8.40;99.90
11991;DHT22;6055;52.522;13.446;2023-05-08T03:41:05;8.40;99.90
11991;DHT22;6055;52.522;13.446;2023-05-08T03:43:31;8.40;99.90
11991;DHT22;6055;52.522;13.446;2023-05-08T03:45:58;8.40;99.90
11991;DHT22;6055;52.522;13.446;2023-05-08T03:48:24;8.30;99.90
11991;DHT22;6055;52.522;13.446;2023-05-08T03:50:50;8.30;99.90
11991;DHT22;6055;52.522;13.446;2023-05-08T03:53:16;8.30;99.90
11991;DHT22;6055;52.522;13.446;2023-05-08T03:55:42;8.40;99.90
11991;DHT22;6055;52.522;13.446;2023-05-08T03:58:31;8.40;99.90
11991;DHT22;6055;52.522;13.446;2023-05-08T04:01:11;8.30;99.90
11991;DHT22;6055;52.522;13.446;2023-05-08T04:09:19;8.30;99.90
11991;DHT22;6055;52.522;13.446;2023-05-08T04:11:51;8.30;99.90
11991;DHT22;6055;52.522;13.446;2023-05-08T04:14:25;8.30;99.90
11991;DHT22;6055;52.522;13.446;2023-05-08T04:16:53;8.40;99.90
11991;DHT22;6055;52.522;13.446;2023-05-08T04:19:23;8.40;99.90
11991;DHT22;6055;52.522;13.446;2023-05-08T04:21:50;8.40;99.90
11991;DHT22;6055;52.522;13.446;2023-05-08T04:24:21;8.40;99.90
11991;DHT22;6055;52.522;13.446;2023-05-08T04:26:47;8.40;99.90
11991;DHT22;6055;52.522;13.446;2023-05-08T04:29:13;8.40;99.90
11991;DHT22;6055;52.522;13.446;2023-05-08T04:31:39;8.40;99.90
11991;DHT22;6055;52.522;13.446;2023-05-08T04:34:05;8.40;99.90
11991;DHT22;6055;52.522;13.446;2023-05-08T04:36:33;8.50;99.90
11991;DHT22;6055;52.522;13.446;2023-05-08T04:38:59;8.50;99.90
11991;DHT22;6055;52.522;13.446;2023-05-08T04:41:24;8.50;99.90
11991;DHT22;6055;52.522;13.446;2023-05-08T04:43:51;8.50;99.90
11991;DHT22;6055;52.522;13.446;2023-05-08T04:46:17;8.50;99.90
11991;DHT22;6055;52.522;13.446;2023-05-08T04:48:42;8.50;99.90
11991;DHT22;6055;52.522;13.446;2023-05-08T04:51:08;8.50;99.90
11991;DHT22;6055;52.522;13.446;2023-05-08T04:53:33;8.50;99.90
11991;DHT22;6055;52.522;13.446;2023-05-08T04:55:59;8.50;99.90
11991;DHT22;6055;52.522;13.446;2023-05-08T04:58:24;8.50;99.90
11991;DHT22;6055;52.522;13.446;2023-05-08T05:00:50;8.50;99.90
11991;DHT22;6055;52.522;13.446;2023-05-08T05:03:15;8.50;99.90
11991;DHT22;6055;52.522;13.446;2023-05-08T05:05:44;8.70;99.90
11991;DHT22;6055;52.522;13.446;2023-05-08T05:08:09;8.70;99.90
11991;DHT22;6055;52.522;13.446;2023-05-08T05:10:36;8.80;99.90
11991;DHT22;6055;52.522;13.446;2023-05-08T05:13:02;8.80;99.90
11991;DHT22;6055;52.522;13.446;2023-05-08T05:15:27;8.70;99.90
11991;DHT22;6055;52.522;13.446;2023-05-08T05:17:53;8.80;99.90
11991;DHT22;6055;52.522;13.446;2023-05-08T05:20:18;8.80;99.90
11991;DHT22;6055;52.522;13.446;2023-05-08T05:22:44;8.80;99.90
11991;DHT22;6055;52.522;13.446;2023-05-08T05:25:09;8.90;99.90
11991;DHT22;6055;52.522;13.446;2023-05-08T05:27:35;8.90;99.90
11991;DHT22;6055;52.522;13.446;2023-05-08T05:30:01;8.90;99.90
11991;DHT22;6055;52.522;13.446;2023-05-08T05:32:26;8.90;99.90
11991;DHT22;6055;52.522;13.446;2023-05-08T05:34:52;8.90;99.90
11991;DHT22;6055;52.522;13.446;2023-05-08T05:37:18;9.00;99.90
11991;DHT22;6055;52.522;13.446;2023-05-08T05:39:44;9.00;99.90
11991;DHT22;6055;52.522;13.446;2023-05-08T05:42:09;9.00;99.90
11991;DHT22;6055;52.522;13.446;2023-05-08T05:44:36;9.10;99.90
11991;DHT22;6055;52.522;13.446;2023-05-08T05:47:01;9.10;99.90
11991;DHT22;6055;52.522;13.446;2023-05-08T05:49:29;9.10;99.90
11991;DHT22;6055;52.522;13.446;2023-05-08T05:51:55;9.20;99.90
11991;DHT22;6055;52.522;13.446;2023-05-08T05:54:20;9.20;99.90
11991;DHT22;6055;52.522;13.446;2023-05-08T05:56:46;9.30;99.90
11991;DHT22;6055;52.522;13.446;2023-05-08T05:59:11;9.30;99.90
11991;DHT22;6055;52.522;13.446;2023-05-08T06:01:36;9.40;99.90
11991;DHT22;6055;52.522;13.446;2023-05-08T06:04:03;9.40;99.90
11991;DHT22;6055;52.522;13.446;2023-05-08T06:06:28;9.40;99.90
11991;DHT22;6055;52.522;13.446;2023-05-08T06:08:54;9.50;99.90
11991;DHT22;6055;52.522;13.446;2023-05-08T06:11:19;9.50;99.90
11991;DHT22;6055;52.522;13.446;2023-05-08T06:13:46;9.60;99.90
11991;DHT22;6055;52.522;13.446;2023-05-08T06:16:12;9.60;99.90
11991;DHT22;6055;52.522;13.446;2023-05-08T06:18:37;9.70;99.90
11991;DHT22;6055;52.522;13.446;2023-05-08T06:21:03;9.70;99.90
11991;DHT22;6055;52.522;13.446;2023-05-08T06:23:28;9.70;99.90
11991;DHT22;6055;52.522;13.446;2023-05-08T06:25:54;9.80;99.90
11991;DHT22;6055;52.522;13.446;2023-05-08T06:28:20;9.80;99.90
11991;DHT22;6055;52.522;13.446;2023-05-08T06:30:46;9.90;99.90
11991;DHT22;6055;52.522;13.446;2023-05-08T06:33:12;9.90;99.90
11991;DHT22;6055;52.522;13.446;2023-05-08T06:35:37;9.90;99.90
11991;DHT22;6055;52.522;13.446;2023-05-08T06:38:03;10.00;99.90
11991;DHT22;6055;52.522;13.446;2023-05-08T06:40:28;10.00;99.90
11991;DHT22;6055;52.522;13.446;2023-05-08T06:42:54;10.00;99.90
11991;DHT22;6055;52.522;13.446;2023-05-08T06:45:19;10.10;99.90
11991;DHT22;6055;52.522;13.446;2023-05-08T06:47:45;10.20;99.90
11991;DHT22;6055;52.522;13.446;2023-05-08T06:50:10;10.20;99.90
11991;DHT22;6055;52.522;13.446;2023-05-08T06:52:36;10.20;99.90
11991;DHT22;6055;52.522;13.446;2023-05-08T06:55:01;10.30;99.90
11991;DHT22;6055;52.522;13.446;2023-05-08T06:57:27;10.30;99.90
11991;DHT22;6055;52.522;13.446;2023-05-08T06:59:54;10.40;99.90
11991;DHT22;6055;52.522;13.446;2023-05-08T07:02:20;10.50;99.90
11991;DHT22;6055;52.522;13.446;2023-05-08T07:04:46;10.50;99.90
11991;DHT22;6055;52.522;13.446;2023-05-08T07:07:11;10.60;99.90
11991;DHT22;6055;52.522;13.446;2023-05-08T07:09:38;10.70;99.90
11991;DHT22;6055;52.522;13.446;2023-05-08T07:12:04;10.70;99.60
11991;DHT22;6055;52.522;13.446;2023-05-08T07:14:29;10.70;99.40
11991;DHT22;6055;52.522;13.446;2023-05-08T07:16:55;10.80;99.50
11991;DHT22;6055;52.522;13.446;2023-05-08T07:19:20;10.80;99.40
11991;DHT22;6055;52.522;13.446;2023-05-08T07:21:46;10.80;99.40
11991;DHT22;6055;52.522;13.446;2023-05-08T07:24:11;10.90;98.90
11991;DHT22;6055;52.522;13.446;2023-05-08T07:26:37;10.90;98.70
11991;DHT22;6055;52.522;13.446;2023-05-08T07:29:04;11.00;98.70
11991;DHT22;6055;52.522;13.446;2023-05-08T07:31:30;11.00;98.70
11991;DHT22;6055;52.522;13.446;2023-05-08T07:33:55;11.10;98.40
11991;DHT22;6055;52.522;13.446;2023-05-08T07:36:23;11.20;97.90
11991;DHT22;6055;52.522;13.446;2023-05-08T07:38:48;11.20;97.50
11991;DHT22;6055;52.522;13.446;2023-05-08T07:41:14;11.20;97.40
11991;DHT22;6055;52.522;13.446;2023-05-08T07:43:39;11.30;97.30
11991;DHT22;6055;52.522;13.446;2023-05-08T07:46:05;11.40;96.70
11991;DHT22;6055;52.522;13.446;2023-05-08T07:48:31;11.40;95.90
11991;DHT22;6055;52.522;13.446;2023-05-08T07:50:56;11.50;95.60
11991;DHT22;6055;52.522;13.446;2023-05-08T07:53:22;11.50;95.60
11991;DHT22;6055;52.522;13.446;2023-05-08T07:55:50;11.50;95.30
11991;DHT22;6055;52.522;13.446;2023-05-08T07:58:15;11.60;95.30
11991;DHT22;6055;52.522;13.446;2023-05-08T08:00:40;11.60;95.50
11991;DHT22;6055;52.522;13.446;2023-05-08T08:03:06;11.70;95.50
11991;DHT22;6055;52.522;13.446;2023-05-08T08:05:31;11.80;95.00
11991;DHT22;6055;52.522;13.446;2023-05-08T08:07:57;11.90;94.70
11991;DHT22;6055;52.522;13.446;2023-05-08T08:10:23;12.00;94.50
11991;DHT22;6055;52.522;13.446;2023-05-08T08:12:48;12.10;94.50
11991;DHT22;6055;52.522;13.446;2023-05-08T08:15:14;12.10;94.10
11991;DHT22;6055;52.522;13.446;2023-05-08T08:17:39;12.20;93.90
11991;DHT22;6055;52.522;13.446;2023-05-08T08:20:05;12.40;93.40
11991;DHT22;6055;52.522;13.446;2023-05-08T08:22:31;12.50;92.80
11991;DHT22;6055;52.522;13.446;2023-05-08T08:24:56;12.60;92.00
11991;DHT22;6055;52.522;13.446;2023-05-08T08:27:22;12.70;91.90
11991;DHT22;6055;52.522;13.446;2023-05-08T08:29:47;12.90;91.70
11991;DHT22;6055;52.522;13.446;2023-05-08T08:32:13;13.30;90.70
11991;DHT22;6055;52.522;13.446;2023-05-08T08:34:39;13.90;89.90
11991;DHT22;6055;52.522;13.446;2023-05-08T08:37:05;14.50;88.30
11991;DHT22;6055;52.522;13.446;2023-05-08T08:39:34;15.20;86.50
11991;DHT22;6055;52.522;13.446;2023-05-08T08:42:00;15.90;83.40
11991;DHT22;6055;52.522;13.446;2023-05-08T08:44:26;16.50;81.60
11991;DHT22;6055;52.522;13.446;2023-05-08T08:46:52;17.30;79.50
11991;DHT22;6055;52.522;13.446;2023-05-08T08:49:23;18.10;76.00
11991;DHT22;6055;52.522;13.446;2023-05-08T08:51:52;18.60;74.20
11991;DHT22;6055;52.522;13.446;2023-05-08T08:54:23;19.60;69.90
11991;DHT22;6055;52.522;13.446;2023-05-08T08:56:53;20.20;66.90
11991;DHT22;6055;52.522;13.446;2023-05-08T08:59:24;20.60;65.00
11991;DHT22;6055;52.522;13.446;2023-05-08T09:04:43;21.20;59.80
11991;DHT22;6055;52.522;13.446;2023-05-08T09:07:26;21.30;59.60
11991;DHT22;6055;52.522;13.446;2023-05-08T09:09:55;21.60;58.20
11991;DHT22;6055;52.522;13.446;2023-05-08T09:12:21;21.50;57.50
11991;DHT22;6055;52.522;13.446;2023-05-08T09:14:46;21.70;56.30
11991;DHT22;6055;52.522;13.446;2023-05-08T09:17:12;21.70;55.50
11991;DHT22;6055;52.522;13.446;2023-05-08T09:19:38;21.60;55.20
11991;DHT22;6055;52.522;13.446;2023-05-08T09:22:05;21.90;55.30
11991;DHT22;6055;52.522;13.446;2023-05-08T09:27:21;21.90;54.00
11991;DHT22;6055;52.522;13.446;2023-05-08T09:30:08;22.10;54.10
11991;DHT22;6055;52.522;13.446;2023-05-08T09:32:37;22.00;53.90
11991;DHT22;6055;52.522;13.446;2023-05-08T09:35:04;22.50;53.90
11991;DHT22;6055;52.522;13.446;2023-05-08T09:37:30;22.80;53.60
11991;DHT22;6055;52.522;13.446;2023-05-08T09:40:21;23.00;53.50
11991;DHT22;6055;52.522;13.446;2023-05-08T09:42:48;23.20;52.50
11991;DHT22;6055;52.522;13.446;2023-05-08T09:45:28;23.40;52.70
11991;DHT22;6055;52.522;13.446;2023-05-08T09:47:54;23.40;51.10
11991;DHT22;6055;52.522;13.446;2023-05-08T09:50:19;23.50;51.10
11991;DHT22;6055;52.522;13.446;2023-05-08T09:52:47;23.70;50.80
11991;DHT22;6055;52.522;13.446;2023-05-08T09:55:13;23.90;50.20
11991;DHT22;6055;52.522;13.446;2023-05-08T09:57:57;24.00;49.30
11991;DHT22;6055;52.522;13.446;2023-05-08T10:00:24;23.90;50.60
11991;DHT22;6055;52.522;13.446;2023-05-08T10:03:16;23.80;49.70
11991;DHT22;6055;52.522;13.446;2023-05-08T10:05:42;23.70;48.40
11991;DHT22;6055;52.522;13.446;2023-05-08T10:08:21;23.70;48.60
11991;DHT22;6055;52.522;13.446;2023-05-08T10:10:47;24.00;49.10
11991;DHT22;6055;52.522;13.446;2023-05-08T10:13:13;24.10;47.80
11991;DHT22;6055;52.522;13.446;2023-05-08T10:15:43;24.30;47.40
11991;DHT22;6055;52.522;13.446;2023-05-08T10:18:10;24.40;46.30
11991;DHT22;6055;52.522;13.446;2023-05-08T10:20:40;24.40;45.60
11991;DHT22;6055;52.522;13.446;2023-05-08T10:23:07;24.30;45.50
11991;DHT22;6055;52.522;13.446;2023-05-08T10:25:43;24.40;44.70
11991;DHT22;6055;52.522;13.446;2023-05-08T10:30:48;24.00;44.70
11991;DHT22;6055;52.522;13.446;2023-05-08T10:33:19;24.40;43.60
11991;DHT22;6055;52.522;13.446;2023-05-08T10:35:45;24.40;44.50
11991;DHT22;6055;52.522;13.446;2023-05-08T10:38:11;24.20;43.90
11991;DHT22;6055;52.522;13.446;2023-05-08T10:40:39;24.60;43.90
11991;DHT22;6055;52.522;13.446;2023-05-08T10:43:06;24.60;43.30
11991;DHT22;6055;52.522;13.446;2023-05-08T10:45:39;24.80;43.40
11991;DHT22;6055;52.522;13.446;2023-05-08T10:48:31;25.00;42.40
11991;DHT22;6055;52.522;13.446;2023-05-08T10:51:17;25.20;42.60
11991;DHT22;6055;52.522;13.446;2023-05-08T10:53:50;25.30;42.50
11991;DHT22;6055;52.522;13.446;2023-05-08T10:56:24;25.50;42.40
11991;DHT22;6055;52.522;13.446;2023-05-08T10:58:55;25.70;42.60
11991;DHT22;6055;52.522;13.446;2023-05-08T11:01:20;25.90;42.10
11991;DHT22;6055;52.522;13.446;2023-05-08T11:03:47;26.20;41.40
11991;DHT22;6055;52.522;13.446;2023-05-08T11:06:15;26.00;41.40
11991;DHT22;6055;52.522;13.446;2023-05-08T11:08:49;26.20;40.40
11991;DHT22;6055;52.522;13.446;2023-05-08T11:11:28;26.00;40.30
11991;DHT22;6055;52.522;13.446;2023-05-08T11:14:08;26.00;39.80
11991;DHT22;6055;52.522;13.446;2023-05-08T11:19:20;26.10;40.20
11991;DHT22;6055;52.522;13.446;2023-05-08T11:24:38;26.10;39.50
11991;DHT22;6055;52.522;13.446;2023-05-08T11:27:03;26.10;40.40
11991;DHT22;6055;52.522;13.446;2023-05-08T11:29:29;26.10;39.30
11991;DHT22;6055;52.522;13.446;2023-05-08T11:31:55;26.00;38.60
11991;DHT22;6055;52.522;13.446;2023-05-08T11:34:59;26.30;39.70
11991;DHT22;6055;52.522;13.446;2023-05-08T11:37:25;26.30;39.60
11991;DHT22;6055;52.522;13.446;2023-05-08T11:39:50;26.20;38.80
11991;DHT22;6055;52.522;13.446;2023-05-08T11:45:08;26.40;39.50
11991;DHT22;6055;52.522;13.446;2023-05-08T11:47:38;26.60;40.00
11991;DHT22;6055;52.522;13.446;2023-05-08T11:50:07;26.90;39.70
11991;DHT22;6055;52.522;13.446;2023-05-08T11:52:36;27.10;39.10
11991;DHT22;6055;52.522;13.446;2023-05-08T11:55:06;27.00;38.80
11991;DHT22;6055;52.522;13.446;2023-05-08T11:57:33;26.90;38.80
11991;DHT22;6055;52.522;13.446;2023-05-08T12:00:06;26.90;38.30
11991;DHT22;6055;52.522;13.446;2023-05-08T12:02:40;26.70;38.70
11991;DHT22;6055;52.522;13.446;2023-05-08T12:05:09;26.60;37.70
11991;DHT22;6055;52.522;13.446;2023-05-08T12:07:45;26.60;37.30
11991;DHT22;6055;52.522;13.446;2023-05-08T12:10:12;26.50;37.90
11991;DHT22;6055;52.522;13.446;2023-05-08T12:12:38;26.60;38.00
11991;DHT22;6055;52.522;13.446;2023-05-08T12:15:08;26.90;37.10
11991;DHT22;6055;52.522;13.446;2023-05-08T12:17:33;26.90;38.60
11991;DHT22;6055;52.522;13.446;2023-05-08T12:20:09;27.00;37.50
11991;DHT22;6055;52.522;13.446;2023-05-08T12:22:37;27.00;37.10
11991;DHT22;6055;52.522;13.446;2023-05-08T12:25:04;27.00;37.90
11991;DHT22;6055;52.522;13.446;2023-05-08T12:27:30;26.90;37.00
11991;DHT22;6055;52.522;13.446;2023-05-08T12:29:56;26.50;37.70
11991;DHT22;6055;52.522;13.446;2023-05-08T12:32:22;26.50;37.50
11991;DHT22;6055;52.522;13.446;2023-05-08T12:34:47;26.70;37.60
11991;DHT22;6055;52.522;13.446;2023-05-08T12:37:26;26.70;36.50
11991;DHT22;6055;52.522;13.446;2023-05-08T12:39:51;26.90;36.40
11991;DHT22;6055;52.522;13.446;2023-05-08T12:42:17;26.80;35.70
11991;DHT22;6055;52.522;13.446;2023-05-08T12:44:52;26.80;37.10
11991;DHT22;6055;52.522;13.446;2023-05-08T12:47:18;26.80;36.10
11991;DHT22;6055;52.522;13.446;2023-05-08T12:49:44;26.70;36.30
11991;DHT22;6055;52.522;13.446;2023-05-08T12:52:13;26.70;42.10
11991;DHT22;6055;52.522;13.446;2023-05-08T12:54:44;26.50;38.00
11991;DHT22;6055;52.522;13.446;2023-05-08T12:57:11;26.50;36.20
11991;DHT22;6055;52.522;13.446;2023-05-08T12:59:37;26.60;35.70
11991;DHT22;6055;52.522;13.446;2023-05-08T13:02:02;26.60;34.90
11991;DHT22;6055;52.522;13.446;2023-05-08T13:04:28;26.70;35.00
11991;DHT22;6055;52.522;13.446;2023-05-08T13:06:55;26.60;34.70
11991;DHT22;6055;52.522;13.446;2023-05-08T13:09:20;26.60;35.00
11991;DHT22;6055;52.522;13.446;2023-05-08T13:11:47;26.60;35.10
11991;DHT22;6055;52.522;13.446;2023-05-08T13:14:13;26.70;36.30
11991;DHT22;6055;52.522;13.446;2023-05-08T13:16:47;26.50;36.20
11991;DHT22;6055;52.522;13.446;2023-05-08T13:19:13;26.60;35.60
11991;DHT22;6055;52.522;13.446;2023-05-08T13:21:40;26.70;35.50
11991;DHT22;6055;52.522;13.446;2023-05-08T13:24:06;26.70;34.10
11991;DHT22;6055;52.522;13.446;2023-05-08T13:26:31;26.40;33.70
11991;DHT22;6055;52.522;13.446;2023-05-08T13:28:57;26.40;33.50
11991;DHT22;6055;52.522;13.446;2023-05-08T13:31:23;26.30;34.60
11991;DHT22;6055;52.522;13.446;2023-05-08T13:33:48;26.20;34.40
11991;DHT22;6055;52.522;13.446;2023-05-08T13:36:14;26.30;35.40
11991;DHT22;6055;52.522;13.446;2023-05-08T13:38:39;26.30;35.90
11991;DHT22;6055;52.522;13.446;2023-05-08T13:41:05;26.40;34.80
11991;DHT22;6055;52.522;13.446;2023-05-08T13:43:30;26.30;34.10
11991;DHT22;6055;52.522;13.446;2023-05-08T13:45:56;26.20;34.30
11991;DHT22;6055;52.522;13.446;2023-05-08T13:48:21;26.00;33.80
11991;DHT22;6055;52.522;13.446;2023-05-08T13:50:47;26.00;34.10
11991;DHT22;6055;52.522;13.446;2023-05-08T13:53:12;25.90;34.50
11991;DHT22;6055;52.522;13.446;2023-05-08T13:55:38;25.90;33.80
11991;DHT22;6055;52.522;13.446;2023-05-08T13:58:03;26.00;33.40
11991;DHT22;6055;52.522;13.446;2023-05-08T14:00:29;25.90;33.00
11991;DHT22;6055;52.522;13.446;2023-05-08T14:02:54;26.00;33.70
11991;DHT22;6055;52.522;13.446;2023-05-08T14:05:20;26.20;33.60
11991;DHT22;6055;52.522;13.446;2023-05-08T14:07:45;26.30;34.60
11991;DHT22;6055;52.522;13.446;2023-05-08T14:10:11;26.30;34.00
11991;DHT22;6055;52.522;13.446;2023-05-08T14:12:37;26.30;34.60
11991;DHT22;6055;52.522;13.446;2023-05-08T14:15:03;26.20;34.40
11991;DHT22;6055;52.522;13.446;2023-05-08T14:17:29;26.00;34.20
11991;DHT22;6055;52.522;13.446;2023-05-08T14:19:55;26.20;34.40
11991;DHT22;6055;52.522;13.446;2023-05-08T14:22:20;26.30;34.30
11991;DHT22;6055;52.522;13.446;2023-05-08T14:24:46;25.90;33.90
11991;DHT22;6055;52.522;13.446;2023-05-08T14:27:11;25.90;34.80
11991;DHT22;6055;52.522;13.446;2023-05-08T14:29:37;26.00;32.90
11991;DHT22;6055;52.522;13.446;2023-05-08T14:32:02;25.80;33.30
11991;DHT22;6055;52.522;13.446;2023-05-08T14:34:28;25.80;33.70
11991;DHT22;6055;52.522;13.446;2023-05-08T14:36:53;25.90;34.00
11991;DHT22;6055;52.522;13.446;2023-05-08T14:39:19;26.10;33.50
11991;DHT22;6055;52.522;13.446;2023-05-08T14:41:44;26.20;34.60
11991;DHT22;6055;52.522;13.446;2023-05-08T14:44:10;26.10;33.20
11991;DHT22;6055;52.522;13.446;2023-05-08T14:46:35;26.10;32.50
11991;DHT22;6055;52.522;13.446;2023-05-08T14:49:01;25.90;32.40
11991;DHT22;6055;52.522;13.446;2023-05-08T14:51:26;25.80;32.90
11991;DHT22;6055;52.522;13.446;2023-05-08T14:53:52;25.50;32.40
11991;DHT22;6055;52.522;13.446;2023-05-08T14:56:17;25.60;33.00
11991;DHT22;6055;52.522;13.446;2023-05-08T14:58:43;25.80;31.50
11991;DHT22;6055;52.522;13.446;2023-05-08T15:01:08;25.90;32.70
11991;DHT22;6055;52.522;13.446;2023-05-08T15:03:34;25.80;33.50
11991;DHT22;6055;52.522;13.446;2023-05-08T15:06:00;25.70;31.10
11991;DHT22;6055;52.522;13.446;2023-05-08T15:08:25;25.30;32.20
11991;DHT22;6055;52.522;13.446;2023-05-08T15:10:50;25.30;32.40
11991;DHT22;6055;52.522;13.446;2023-05-08T15:13:16;25.10;33.00
11991;DHT22;6055;52.522;13.446;2023-05-08T15:15:41;24.80;34.20
11991;DHT22;6055;52.522;13.446;2023-05-08T15:18:07;24.80;34.20
11991;DHT22;6055;52.522;13.446;2023-05-08T15:20:32;25.00;34.80
11991;DHT22;6055;52.522;13.446;2023-05-08T15:22:58;25.00;34.20
11991;DHT22;6055;52.522;13.446;2023-05-08T15:25:23;25.00;35.40
11991;DHT22;6055;52.522;13.446;2023-05-08T15:27:50;25.00;34.80
11991;DHT22;6055;52.522;13.446;2023-05-08T15:30:20;24.90;36.00
11991;DHT22;6055;52.522;13.446;2023-05-08T15:32:46;25.10;35.10
11991;DHT22;6055;52.522;13.446;2023-05-08T15:35:11;25.10;34.60
11991;DHT22;6055;52.522;13.446;2023-05-08T15:37:37;24.90;35.00
11991;DHT22;6055;52.522;13.446;2023-05-08T15:40:04;24.80;34.70
11991;DHT22;6055;52.522;13.446;2023-05-08T15:42:30;24.60;34.60
11991;DHT22;6055;52.522;13.446;2023-05-08T15:44:56;24.40;35.70
11991;DHT22;6055;52.522;13.446;2023-05-08T15:47:22;24.20;34.80
11991;DHT22;6055;52.522;13.446;2023-05-08T15:49:48;24.20;34.70
11991;DHT22;6055;52.522;13.446;2023-05-08T15:52:13;24.30;33.80
11991;DHT22;6055;52.522;13.446;2023-05-08T15:54:43;24.30;33.80
11991;DHT22;6055;52.522;13.446;2023-05-08T15:57:08;24.20;34.50
11991;DHT22;6055;52.522;13.446;2023-05-08T15:59:34;24.40;34.90
11991;DHT22;6055;52.522;13.446;2023-05-08T16:02:02;24.30;34.90
11991;DHT22;6055;52.522;13.446;2023-05-08T16:04:27;24.30;35.50
11991;DHT22;6055;52.522;13.446;2023-05-08T16:06:53;24.20;35.40
11991;DHT22;6055;52.522;13.446;2023-05-08T16:09:20;24.00;35.80
11991;DHT22;6055;52.522;13.446;2023-05-08T16:11:45;23.90;36.10